createdAt,value
2023-05-12T00:00:37.496Z,29.10
2023-05-12T00:01:37.501Z,29.05
2023-05-12T00:02:37.585Z,29.17
2023-05-12T00:03:37.737Z,29.14
2023-05-12T00:04:37.594Z,29.08
2023-05-12T00:05:37.669Z,29.11
2023-05-12T00:06:37.666Z,29.11
2023-05-12T00:07:37.685Z,29.06
2023-05-12T00:08:37.733Z,29.08
2023-05-12T00:09:37.794Z,29.10
2023-05-12T00:10:37.845Z,29.08
2023-05-12T00:11:37.843Z,29.11
2023-05-12T00:12:37.893Z,29.08
2023-05-12T00:13:37.975Z,29.10
2023-05-12T00:14:37.924Z,29.08
2023-05-12T00:15:37.998Z,29.08
2023-05-12T00:16:38.153Z,29.04
2023-05-12T00:17:38.070Z,29.04
2023-05-12T00:18:38.099Z,29.08
2023-05-12T00:19:38.252Z,29.05
2023-05-12T00:20:38.152Z,29.04
2023-05-12T00:21:38.235Z,29.05
2023-05-12T00:22:38.274Z,29.05
2023-05-12T00:23:38.317Z,29.06
2023-05-12T00:24:38.364Z,29.05
2023-05-12T00:25:38.399Z,29.05
2023-05-12T00:26:38.442Z,29.07
2023-05-12T00:27:38.478Z,29.04
2023-05-12T00:28:38.483Z,29.08
2023-05-12T00:29:38.538Z,29.04
2023-05-12T00:30:38.581Z,29.02
2023-05-12T00:31:38.676Z,29.02
2023-05-12T00:32:38.686Z,28.99
2023-05-12T00:33:38.668Z,29.05
2023-05-12T00:34:38.717Z,29.07
2023-05-12T00:35:38.744Z,29.06
2023-05-12T00:36:38.782Z,29.08
2023-05-12T00:37:38.824Z,29.06
2023-05-12T00:38:38.858Z,29.11
2023-05-12T00:39:38.893Z,29.05
2023-05-12T00:40:38.930Z,29.05
2023-05-12T00:41:38.932Z,29.04
2023-05-12T00:42:38.960Z,29.02
2023-05-12T00:43:39.007Z,29.05
2023-05-12T00:44:39.013Z,29.05
2023-05-12T00:45:39.107Z,29.10
2023-05-12T00:46:39.079Z,29.08
2023-05-12T00:47:39.126Z,29.11
2023-05-12T00:48:39.145Z,29.12
2023-05-12T00:49:39.205Z,29.05
2023-05-12T00:50:39.236Z,29.11
2023-05-12T00:51:39.308Z,29.02
2023-05-12T00:52:39.323Z,29.05
2023-05-12T00:53:49.147Z,29.10
2023-05-12T00:54:40.357Z,29.12
2023-05-12T00:55:39.337Z,29.11
2023-05-12T00:56:39.446Z,29.11
2023-05-12T00:57:39.312Z,29.06
2023-05-12T00:58:39.323Z,29.10
2023-05-12T00:59:39.306Z,29.08
2023-05-12T01:00:39.341Z,29.08
2023-05-12T01:01:39.406Z,29.15
2023-05-12T01:02:39.410Z,29.06
2023-05-12T01:03:39.309Z,29.08
2023-05-12T01:04:39.333Z,29.05
2023-05-12T01:05:39.298Z,29.09
2023-05-12T01:06:39.275Z,29.09
2023-05-12T01:07:39.345Z,29.06
2023-05-12T01:08:39.364Z,29.10
2023-05-12T01:09:39.392Z,29.05
2023-05-12T01:10:39.442Z,29.09
2023-05-12T01:11:39.505Z,29.09
2023-05-12T01:12:39.553Z,29.12
2023-05-12T01:13:39.565Z,29.11
2023-05-12T01:14:39.624Z,29.09
2023-05-12T01:15:39.671Z,29.14
2023-05-12T01:16:39.726Z,29.08
2023-05-12T01:17:39.874Z,29.11
2023-05-12T01:18:39.803Z,29.11
2023-05-12T01:19:39.826Z,29.12
2023-05-12T01:20:39.855Z,29.11
2023-05-12T01:21:39.888Z,29.06
2023-05-12T01:22:40.142Z,29.14
2023-05-12T01:23:40.004Z,29.09
2023-05-12T01:24:40.054Z,29.09
2023-05-12T01:25:40.229Z,29.14
2023-05-12T01:26:40.113Z,29.15
2023-05-12T01:27:40.193Z,29.15
2023-05-12T01:28:40.180Z,29.12
2023-05-12T01:29:40.240Z,29.15
2023-05-12T01:30:40.247Z,29.15
2023-05-12T01:31:40.398Z,29.18
2023-05-12T01:32:40.339Z,29.16
2023-05-12T01:33:40.329Z,29.21
2023-05-12T01:34:40.327Z,29.14
2023-05-12T01:35:40.393Z,29.15
2023-05-12T01:36:40.423Z,29.20
2023-05-12T01:37:40.473Z,29.16
2023-05-12T01:38:40.507Z,29.17
2023-05-12T01:39:40.495Z,29.18
2023-05-12T01:40:40.485Z,29.16
2023-05-12T01:41:40.530Z,29.16
2023-05-12T01:42:40.581Z,29.18
2023-05-12T01:43:40.585Z,29.16
2023-05-12T01:44:40.634Z,29.17
2023-05-12T01:45:40.654Z,29.18
2023-05-12T01:46:40.738Z,29.23
2023-05-12T01:47:40.751Z,29.21
2023-05-12T01:48:40.767Z,29.20
2023-05-12T01:49:40.806Z,29.25
2023-05-12T01:50:40.846Z,29.21
2023-05-12T01:51:40.880Z,29.16
2023-05-12T01:52:40.914Z,29.18
2023-05-12T01:53:40.947Z,29.21
2023-05-12T01:54:41.000Z,29.28
2023-05-12T01:55:41.157Z,29.27
2023-05-12T01:56:41.078Z,29.20
2023-05-12T01:57:41.262Z,29.22
2023-05-12T01:58:41.217Z,29.25
2023-05-12T01:59:41.160Z,29.24
2023-05-12T02:00:41.189Z,29.21
2023-05-12T02:01:41.291Z,29.23
2023-05-12T02:02:42.880Z,29.24
2023-05-12T02:03:41.440Z,29.28
2023-05-12T02:04:41.332Z,29.28
2023-05-12T02:05:41.400Z,29.30
2023-05-12T02:06:41.443Z,29.25
2023-05-12T02:07:41.485Z,29.30
2023-05-12T02:08:41.506Z,29.27
2023-05-12T02:09:41.538Z,29.24
2023-05-12T02:10:41.588Z,29.28
2023-05-12T02:11:41.642Z,29.28
2023-05-12T02:12:41.685Z,29.30
2023-05-12T02:13:41.709Z,29.24
2023-05-12T02:14:41.754Z,29.25
2023-05-12T02:15:41.808Z,29.30
2023-05-12T02:16:41.954Z,29.28
2023-05-12T02:17:41.865Z,29.31
2023-05-12T02:18:41.910Z,29.25
2023-05-12T02:19:41.917Z,29.30
2023-05-12T02:20:41.942Z,29.27
2023-05-12T02:21:41.996Z,29.30
2023-05-12T02:22:42.016Z,29.33
2023-05-12T02:23:42.052Z,29.24
2023-05-12T02:24:42.088Z,29.27
2023-05-12T02:25:42.149Z,29.25
2023-05-12T02:26:42.182Z,29.28
2023-05-12T02:27:42.297Z,29.28
2023-05-12T02:28:42.244Z,29.28
2023-05-12T02:29:42.314Z,29.27
2023-05-12T02:30:42.337Z,29.25
2023-05-12T02:31:42.603Z,29.25
2023-05-12T02:32:42.426Z,29.24
2023-05-12T02:33:42.460Z,29.25
2023-05-12T02:34:42.457Z,29.30
2023-05-12T02:35:42.463Z,29.25
2023-05-12T02:36:42.519Z,29.25
2023-05-12T02:37:42.532Z,29.27
2023-05-12T02:38:42.558Z,29.30
2023-05-12T02:39:42.618Z,29.25
2023-05-12T02:40:42.643Z,29.28
2023-05-12T02:41:42.654Z,29.30
2023-05-12T02:42:42.710Z,29.27
2023-05-12T02:43:42.744Z,29.27
2023-05-12T02:44:42.773Z,29.27
2023-05-12T02:45:42.869Z,29.25
2023-05-12T02:46:42.848Z,29.25
2023-05-12T02:47:42.940Z,29.28
2023-05-12T02:48:42.953Z,29.27
2023-05-12T02:49:42.947Z,29.25
2023-05-12T02:50:42.970Z,29.23
2023-05-12T02:51:42.993Z,29.25
2023-05-12T02:52:43.025Z,29.23
2023-05-12T02:53:43.136Z,29.21
2023-05-12T02:54:43.124Z,29.27
2023-05-12T02:55:43.165Z,29.22
2023-05-12T02:56:43.199Z,29.22
2023-05-12T02:57:43.221Z,29.21
2023-05-12T02:58:43.271Z,29.19
2023-05-12T02:59:43.350Z,29.21
2023-05-12T03:00:43.351Z,29.21
2023-05-12T03:01:43.459Z,29.21
2023-05-12T03:02:43.609Z,29.23
2023-05-12T03:03:43.644Z,29.18
2023-05-12T03:04:43.495Z,29.25
2023-05-12T03:05:43.542Z,29.19
2023-05-12T03:06:43.601Z,29.19
2023-05-12T03:07:43.655Z,29.23
2023-05-12T03:08:43.644Z,29.18
2023-05-12T03:09:43.673Z,29.19
2023-05-12T03:10:43.707Z,29.19
2023-05-12T03:11:43.753Z,29.21
2023-05-12T03:12:43.801Z,29.21
2023-05-12T03:13:43.857Z,29.19
2023-05-12T03:14:43.865Z,29.18
2023-05-12T03:15:43.940Z,29.21
2023-05-12T03:16:43.996Z,29.25
2023-05-12T03:17:44.004Z,29.19
2023-05-12T03:18:44.019Z,29.19
2023-05-12T03:19:44.003Z,29.18
2023-05-12T03:20:44.100Z,29.22
2023-05-12T03:21:44.088Z,29.23
2023-05-12T03:22:44.119Z,29.19
2023-05-12T03:23:44.147Z,29.18
2023-05-12T03:24:44.169Z,29.21
2023-05-12T03:25:44.184Z,29.19
2023-05-12T03:26:44.220Z,29.18
2023-05-12T03:27:44.283Z,29.16
2023-05-12T03:28:44.244Z,29.15
2023-05-12T03:29:44.302Z,29.19
2023-05-12T03:30:44.365Z,29.21
2023-05-12T03:31:44.519Z,29.13
2023-05-12T03:32:44.480Z,29.18
2023-05-12T03:33:44.456Z,29.21
2023-05-12T03:34:44.476Z,29.19
2023-05-12T03:35:44.512Z,29.19
2023-05-12T03:36:44.563Z,29.13
2023-05-12T03:37:44.602Z,29.18
2023-05-12T03:38:44.669Z,29.18
2023-05-12T03:39:44.713Z,29.16
2023-05-12T03:40:44.714Z,29.16
2023-05-12T03:41:44.750Z,29.15
2023-05-12T03:42:44.810Z,29.15
2023-05-12T03:43:44.843Z,29.19
2023-05-12T03:44:45.062Z,29.15
2023-05-12T03:45:44.918Z,29.17
2023-05-12T03:46:45.077Z,29.15
2023-05-12T03:47:45.227Z,29.16
2023-05-12T03:48:45.082Z,29.21
2023-05-12T03:49:45.115Z,29.17
2023-05-12T03:50:45.144Z,29.17
2023-05-12T03:51:45.182Z,29.17
2023-05-12T03:52:45.208Z,29.21
2023-05-12T03:53:45.284Z,29.19
2023-05-12T03:54:45.295Z,29.16
2023-05-12T03:55:45.316Z,29.18
2023-05-12T03:56:45.380Z,29.17
2023-05-12T03:57:45.407Z,29.16
2023-05-12T03:58:45.469Z,29.16
2023-05-12T03:59:45.474Z,29.15
2023-05-12T04:00:45.519Z,29.16
2023-05-12T04:01:45.604Z,29.21
2023-05-12T04:02:45.773Z,29.19
2023-05-12T04:03:45.758Z,29.13
2023-05-12T04:04:45.723Z,29.16
2023-05-12T04:05:45.755Z,29.23
2023-05-12T04:06:45.758Z,29.23
2023-05-12T04:07:45.793Z,29.21
2023-05-12T04:08:45.842Z,29.22
2023-05-12T04:09:45.902Z,29.17
2023-05-12T04:10:45.954Z,29.22
2023-05-12T04:11:46.047Z,29.19
2023-05-12T04:12:46.065Z,29.13
2023-05-12T04:13:46.049Z,29.22
2023-05-12T04:14:46.114Z,29.19
2023-05-12T04:15:46.122Z,29.15
2023-05-12T04:16:46.302Z,29.22
2023-05-12T04:17:46.316Z,29.21
2023-05-12T04:18:46.315Z,29.16
2023-05-12T04:19:46.328Z,29.21
2023-05-12T04:20:46.333Z,29.19
2023-05-12T04:21:46.391Z,29.16
2023-05-12T04:22:46.436Z,29.16
2023-05-12T04:23:46.523Z,29.19
2023-05-12T04:24:46.505Z,29.19
2023-05-12T04:25:46.570Z,29.19
2023-05-12T04:26:46.603Z,29.21
2023-05-12T04:27:46.649Z,29.21
2023-05-12T04:28:46.720Z,29.16
2023-05-12T04:29:46.741Z,29.17
2023-05-12T04:30:46.769Z,29.17
2023-05-12T04:31:46.860Z,29.21
2023-05-12T04:32:46.934Z,29.17
2023-05-12T04:33:48.319Z,29.21
2023-05-12T04:34:46.919Z,29.22
2023-05-12T04:35:46.961Z,29.19
2023-05-12T04:36:46.995Z,29.22
2023-05-12T04:37:47.060Z,29.19
2023-05-12T04:38:47.095Z,29.19
2023-05-12T04:39:47.125Z,29.21
2023-05-12T04:40:47.159Z,29.17
2023-05-12T04:41:47.217Z,29.21
2023-05-12T04:42:47.272Z,29.17
2023-05-12T04:44:47.351Z,29.17
2023-05-12T04:45:47.349Z,29.18
2023-05-12T04:46:47.326Z,29.15
2023-05-12T04:47:47.317Z,29.18
2023-05-12T04:48:47.365Z,29.15
2023-05-12T04:49:47.292Z,29.18
2023-05-12T04:50:47.290Z,29.23
2023-05-12T04:51:47.290Z,29.18
2023-05-12T04:52:47.278Z,29.19
2023-05-12T04:53:47.270Z,29.19
2023-05-12T04:54:47.251Z,29.18
2023-05-12T04:55:47.246Z,29.16
2023-05-12T04:56:47.237Z,29.10
2023-05-12T04:57:47.221Z,29.16
2023-05-12T04:58:47.205Z,29.18
2023-05-12T04:59:47.216Z,29.13
2023-05-12T05:00:47.204Z,29.18
2023-05-12T05:01:47.350Z,29.12
2023-05-12T05:02:47.321Z,29.16
2023-05-12T05:03:47.278Z,29.18
2023-05-12T05:04:47.177Z,29.16
2023-05-12T05:05:47.167Z,29.18
2023-05-12T05:06:47.163Z,29.15
2023-05-12T05:07:47.153Z,29.19
2023-05-12T05:08:47.157Z,29.15
2023-05-12T05:09:47.136Z,29.14
2023-05-12T05:10:47.138Z,29.15
2023-05-12T05:11:47.156Z,29.14
2023-05-12T05:12:47.124Z,29.14
2023-05-12T05:13:47.130Z,29.12
2023-05-12T05:14:47.119Z,29.15
2023-05-12T05:15:47.126Z,29.20
2023-05-12T05:16:47.085Z,29.14
2023-05-12T05:17:47.131Z,29.17
2023-05-12T05:18:47.128Z,29.15
2023-05-12T05:19:55.954Z,29.14
2023-05-12T05:20:57.241Z,29.14
2023-05-12T05:21:48.051Z,29.12
2023-05-12T05:22:47.045Z,29.16
2023-05-12T05:23:47.052Z,29.11
2023-05-12T05:24:47.050Z,29.16
2023-05-12T05:25:47.050Z,29.11
2023-05-12T05:26:47.029Z,29.11
2023-05-12T05:27:47.266Z,29.14
2023-05-12T05:28:47.011Z,29.24
2023-05-12T05:29:47.014Z,29.67
2023-05-12T05:30:47.024Z,29.85
2023-05-12T05:31:47.076Z,30.53
2023-05-12T05:32:47.369Z,30.58
2023-05-12T05:33:46.983Z,30.47
2023-05-12T05:34:46.971Z,31.51
2023-05-12T05:35:46.963Z,31.45
2023-05-12T05:36:46.944Z,30.98
2023-05-12T05:37:46.943Z,31.50
2023-05-12T05:38:46.938Z,31.58
2023-05-12T05:39:46.940Z,31.88
2023-05-12T05:40:53.607Z,32.68
2023-05-12T05:41:47.910Z,32.38
2023-05-12T05:42:46.939Z,32.35
2023-05-12T05:43:46.918Z,32.30
2023-05-12T05:44:46.917Z,32.37
2023-05-12T05:45:46.881Z,32.22
2023-05-12T05:46:46.886Z,32.20
2023-05-12T05:47:47.307Z,31.70
2023-05-12T05:48:46.874Z,31.61
2023-05-12T05:49:46.863Z,31.70
2023-05-12T05:50:47.006Z,31.04
2023-05-12T05:51:46.865Z,30.67
2023-05-12T05:52:46.876Z,30.97
2023-05-12T05:53:46.869Z,31.30
2023-05-12T05:54:46.828Z,31.03
2023-05-12T05:55:46.890Z,31.23
2023-05-12T05:56:46.877Z,30.90
2023-05-12T05:57:46.930Z,31.16
2023-05-12T05:58:46.917Z,31.19
2023-05-12T05:59:46.988Z,31.29
2023-05-12T06:00:47.040Z,31.61
2023-05-12T06:01:47.119Z,31.65
2023-05-12T06:02:47.216Z,31.33
2023-05-12T06:03:47.221Z,31.56
2023-05-12T06:04:47.229Z,31.57
2023-05-12T06:05:47.260Z,31.44
2023-05-12T06:06:47.243Z,31.35
2023-05-12T06:07:47.473Z,31.13
2023-05-12T06:08:47.297Z,30.76
2023-05-12T06:09:47.521Z,30.73
2023-05-12T06:10:47.363Z,30.63
2023-05-12T06:11:47.415Z,30.16
2023-05-12T06:12:47.436Z,30.05
2023-05-12T06:13:47.495Z,29.83
2023-05-12T06:14:47.517Z,30.11
2023-05-12T06:15:47.537Z,29.62
2023-05-12T06:16:47.680Z,29.41
2023-05-12T06:17:47.665Z,29.71
2023-05-12T06:18:47.736Z,29.72
2023-05-12T06:19:47.737Z,29.88
2023-05-12T06:20:47.775Z,29.78
2023-05-12T06:21:47.831Z,29.81
2023-05-12T06:22:47.893Z,29.87
2023-05-12T06:23:47.947Z,29.64
2023-05-12T06:24:47.936Z,30.02
2023-05-12T06:25:47.955Z,30.31
2023-05-12T06:26:47.996Z,30.24
2023-05-12T06:27:48.090Z,30.49
2023-05-12T06:28:48.081Z,30.56
2023-05-12T06:29:48.096Z,30.48
2023-05-12T06:30:48.109Z,30.58
2023-05-12T06:31:48.169Z,30.23
2023-05-12T06:32:48.452Z,30.78
2023-05-12T06:33:48.219Z,30.83
2023-05-12T06:34:48.254Z,30.87
2023-05-12T06:35:48.277Z,31.05
2023-05-12T06:36:48.303Z,30.84
2023-05-12T06:37:48.536Z,30.86
2023-05-12T06:38:48.409Z,30.45
2023-05-12T06:39:48.442Z,30.33
2023-05-12T06:40:48.446Z,30.19
2023-05-12T06:41:48.490Z,30.12
2023-05-12T06:42:48.528Z,30.06
2023-05-12T06:43:48.548Z,30.18
2023-05-12T06:44:48.599Z,29.82
2023-05-12T06:45:48.664Z,29.46
2023-05-12T06:46:48.707Z,29.69
2023-05-12T06:47:48.817Z,30.11
2023-05-12T06:48:48.717Z,30.42
2023-05-12T06:49:48.737Z,30.90
2023-05-12T06:50:48.765Z,31.11
2023-05-12T06:51:48.776Z,31.03
2023-05-12T06:52:48.820Z,31.41
2023-05-12T06:53:48.814Z,31.30
2023-05-12T06:54:48.858Z,31.63
2023-05-12T06:55:48.884Z,31.44
2023-05-12T06:56:48.949Z,31.44
2023-05-12T06:57:49.306Z,31.62
2023-05-12T06:58:49.015Z,31.83
2023-05-12T06:59:49.029Z,31.89
2023-05-12T07:00:49.040Z,31.74
2023-05-12T07:01:49.085Z,31.86
2023-05-12T07:02:49.132Z,31.86
2023-05-12T07:03:49.145Z,31.86
2023-05-12T07:04:49.155Z,31.89
2023-05-12T07:05:49.249Z,31.78
2023-05-12T07:06:49.252Z,31.74
2023-05-12T07:07:49.272Z,31.73
2023-05-12T07:08:49.307Z,31.76
2023-05-12T07:09:49.324Z,31.79
2023-05-12T07:10:49.387Z,31.66
2023-05-12T07:11:50.217Z,31.79
2023-05-12T07:12:49.442Z,31.83
2023-05-12T07:13:49.460Z,31.72
2023-05-12T07:14:49.510Z,31.65
2023-05-12T07:15:49.897Z,31.67
2023-05-12T07:16:49.589Z,31.67
2023-05-12T07:17:49.897Z,31.77
2023-05-12T07:18:49.702Z,31.56
2023-05-12T07:19:49.689Z,31.64
2023-05-12T07:20:49.745Z,31.61
2023-05-12T07:21:49.791Z,31.60
2023-05-12T07:22:49.834Z,31.43
2023-05-12T07:23:49.858Z,31.50
2023-05-12T07:24:49.887Z,31.62
2023-05-12T07:25:49.910Z,31.45
2023-05-12T07:26:49.943Z,31.41
2023-05-12T07:27:50.007Z,31.38
2023-05-12T07:28:49.953Z,31.11
2023-05-12T07:29:49.986Z,31.39
2023-05-12T07:30:49.992Z,31.49
2023-05-12T07:31:50.142Z,30.92
2023-05-12T07:32:50.094Z,30.71
2023-05-12T07:33:50.117Z,30.46
2023-05-12T07:34:50.179Z,30.78
2023-05-12T07:35:50.195Z,30.84
2023-05-12T07:36:50.233Z,30.85
2023-05-12T07:37:50.280Z,30.92
2023-05-12T07:38:50.310Z,30.98
2023-05-12T07:39:50.332Z,31.14
2023-05-12T07:40:50.341Z,31.18
2023-05-12T07:41:50.354Z,31.12
2023-05-12T07:42:50.854Z,31.23
2023-05-12T07:43:50.452Z,31.26
2023-05-12T07:44:50.532Z,31.33
2023-05-12T07:45:50.555Z,31.49
2023-05-12T07:46:50.630Z,31.48
2023-05-12T07:47:50.914Z,31.60
2023-05-12T07:48:50.690Z,31.33
2023-05-12T07:49:50.743Z,31.57
2023-05-12T07:50:50.741Z,31.70
2023-05-12T07:51:50.762Z,31.86
2023-05-12T07:52:50.845Z,31.69
2023-05-12T07:53:50.889Z,31.59
2023-05-12T07:54:50.885Z,31.46
2023-05-12T07:55:50.950Z,31.30
2023-05-12T07:56:51.004Z,31.34
2023-05-12T07:57:51.412Z,31.31
2023-05-12T07:58:51.384Z,31.07
2023-05-12T07:59:51.102Z,31.09
2023-05-12T08:00:51.143Z,30.97
2023-05-12T08:01:51.196Z,30.69
2023-05-12T08:02:51.711Z,30.26
2023-05-12T08:03:51.606Z,30.04
2023-05-12T08:04:51.326Z,30.03
2023-05-12T08:05:51.418Z,29.93
2023-05-12T08:06:51.394Z,29.94
2023-05-12T08:07:51.485Z,29.66
2023-05-12T08:08:51.495Z,29.64
2023-05-12T08:09:51.516Z,29.39
2023-05-12T08:10:51.587Z,29.49
2023-05-12T08:11:51.971Z,29.46
2023-05-12T08:12:51.619Z,29.11
2023-05-12T08:13:51.629Z,28.18
2023-05-12T08:14:51.654Z,28.88
2023-05-12T08:15:51.678Z,28.55
2023-05-12T08:16:51.707Z,28.52
2023-05-12T08:17:51.736Z,28.30
2023-05-12T08:18:51.755Z,28.53
2023-05-12T08:19:51.774Z,28.90
2023-05-12T08:20:51.705Z,28.79
2023-05-12T08:21:51.733Z,28.65
2023-05-12T08:22:51.716Z,28.63
2023-05-12T08:23:51.870Z,29.13
2023-05-12T08:24:51.784Z,28.94
2023-05-12T08:25:51.832Z,28.90
2023-05-12T08:26:51.883Z,28.46
2023-05-12T08:27:51.907Z,29.04
2023-05-12T08:28:51.964Z,29.32
2023-05-12T08:29:51.985Z,28.83
2023-05-12T08:30:52.084Z,27.90
2023-05-12T08:31:52.016Z,28.13
2023-05-12T08:32:52.131Z,28.78
2023-05-12T08:34:09.215Z,29.39
2023-05-12T08:34:53.061Z,29.20
2023-05-12T08:35:52.120Z,29.75
2023-05-12T08:36:52.033Z,29.86
2023-05-12T08:37:52.038Z,29.02
2023-05-12T08:38:52.016Z,29.20
2023-05-12T08:39:52.008Z,29.06
2023-05-12T08:40:52.038Z,29.39
2023-05-12T08:41:52.079Z,29.54
2023-05-12T08:42:52.105Z,29.64
2023-05-12T08:43:52.352Z,29.71
2023-05-12T08:44:52.169Z,28.60
2023-05-12T08:45:52.234Z,28.25
2023-05-12T08:46:52.391Z,28.43
2023-05-12T08:47:52.297Z,28.52
2023-05-12T08:48:52.311Z,28.33
2023-05-12T08:49:52.598Z,28.38
2023-05-12T08:50:52.352Z,28.63
2023-05-12T08:51:57.736Z,28.78
2023-05-12T08:52:53.389Z,28.82
2023-05-12T08:53:52.361Z,28.89
2023-05-12T08:54:56.042Z,28.79
2023-05-12T08:57:09.135Z,28.78
2023-05-12T08:57:52.355Z,29.00
2023-05-12T08:58:52.385Z,29.11
2023-05-12T08:59:52.312Z,29.34
2023-05-12T09:00:52.455Z,29.35
2023-05-12T09:01:52.594Z,29.48
2023-05-12T09:02:54.578Z,29.36
2023-05-12T09:03:52.942Z,29.33
2023-05-12T09:04:52.663Z,29.58
2023-05-12T09:05:52.624Z,29.52
2023-05-12T09:06:55.522Z,29.54
2023-05-12T09:07:52.648Z,29.70
2023-05-12T09:08:52.887Z,29.85
2023-05-12T09:09:52.671Z,29.98
2023-05-12T09:10:52.613Z,29.94
2023-05-12T09:11:52.613Z,29.86
2023-05-12T09:12:52.624Z,29.75
2023-05-12T09:13:52.860Z,29.70
2023-05-12T09:14:52.615Z,29.64
2023-05-12T09:15:52.651Z,29.55
2023-05-12T09:16:52.649Z,29.54
2023-05-12T09:17:52.665Z,29.41
2023-05-12T09:18:52.761Z,29.41
2023-05-12T09:19:52.572Z,29.22
2023-05-12T09:20:52.565Z,29.34
2023-05-12T09:21:52.562Z,29.27
2023-05-12T09:22:52.576Z,29.26
2023-05-12T09:23:52.955Z,29.16
2023-05-12T09:24:52.548Z,29.05
2023-05-12T09:25:52.525Z,29.11
2023-05-12T09:26:52.569Z,29.45
2023-05-12T09:27:52.507Z,29.50
2023-05-12T09:28:52.505Z,29.69
2023-05-12T09:30:52.517Z,30.18
2023-05-12T09:31:52.519Z,30.30
2023-05-12T09:32:52.493Z,30.31
2023-05-12T09:33:52.865Z,30.40
2023-05-12T09:34:52.466Z,30.47
2023-05-12T09:35:52.480Z,30.39
2023-05-12T09:36:52.450Z,30.28
2023-05-12T09:37:52.451Z,30.44
2023-05-12T09:38:52.882Z,30.23
2023-05-12T09:39:52.545Z,30.33
2023-05-12T09:40:52.436Z,30.47
2023-05-12T09:41:52.415Z,30.42
2023-05-12T09:42:52.433Z,30.13
2023-05-12T09:43:52.872Z,30.01
2023-05-12T09:44:52.417Z,30.19
2023-05-12T09:45:52.451Z,30.23
2023-05-12T09:46:52.392Z,30.22
2023-05-12T09:47:52.412Z,30.15
2023-05-12T09:48:52.878Z,30.54
2023-05-12T09:49:52.395Z,30.43
2023-05-12T09:50:52.409Z,31.04
2023-05-12T09:51:52.366Z,30.48
2023-05-12T09:52:52.337Z,29.97
2023-05-12T09:53:52.397Z,29.70
2023-05-12T09:54:52.336Z,29.69
2023-05-12T09:55:52.340Z,29.17
2023-05-12T09:56:52.295Z,29.37
2023-05-12T09:57:52.292Z,29.49
2023-05-12T09:58:52.287Z,29.34
2023-05-12T09:59:52.332Z,29.53
2023-05-12T10:01:17.891Z,29.68
2023-05-12T10:01:53.299Z,29.48
2023-05-12T10:02:52.368Z,29.43
2023-05-12T10:03:52.255Z,29.44
2023-05-12T10:04:52.332Z,29.72
2023-05-12T10:05:52.248Z,29.59
2023-05-12T10:06:52.227Z,29.82
2023-05-12T10:07:52.236Z,29.52
2023-05-12T10:08:52.389Z,29.71
2023-05-12T10:09:52.221Z,30.01
2023-05-12T10:10:52.240Z,30.10
2023-05-12T10:11:54.011Z,29.59
2023-05-12T10:12:52.216Z,29.90
2023-05-12T10:13:52.442Z,30.15
2023-05-12T10:14:52.371Z,29.37
2023-05-12T10:15:52.365Z,29.34
2023-05-12T10:16:52.396Z,29.38
2023-05-12T10:17:54.023Z,29.80
2023-05-12T10:18:52.513Z,29.97
2023-05-12T10:19:52.541Z,30.23
2023-05-12T10:20:52.557Z,30.64
2023-05-12T10:21:52.594Z,30.36
2023-05-12T10:22:52.632Z,30.95
2023-05-12T10:23:52.878Z,30.92
2023-05-12T10:24:52.699Z,30.73
2023-05-12T10:25:52.721Z,30.17
2023-05-12T10:26:52.778Z,30.64
2023-05-12T10:27:52.839Z,30.58
2023-05-12T10:28:52.887Z,30.60
2023-05-12T10:29:53.609Z,30.62
2023-05-12T10:30:52.943Z,30.85
2023-05-12T10:31:53.108Z,30.96
2023-05-12T10:32:53.074Z,31.01
2023-05-12T10:33:53.034Z,31.11
2023-05-12T10:34:53.100Z,31.24
2023-05-12T10:35:53.091Z,31.28
2023-05-12T10:36:53.108Z,31.29
2023-05-12T10:37:53.114Z,31.36
2023-05-12T10:38:53.186Z,31.36
2023-05-12T10:39:53.237Z,31.46
2023-05-12T10:40:53.306Z,31.38
2023-05-12T10:41:53.313Z,31.49
2023-05-12T10:42:53.363Z,31.57
2023-05-12T10:43:53.421Z,31.57
2023-05-12T10:44:53.412Z,31.54
2023-05-12T10:45:53.433Z,31.28
2023-05-12T10:46:53.484Z,31.62
2023-05-12T10:47:53.573Z,31.74
2023-05-12T10:48:53.684Z,31.48
2023-05-12T10:49:53.659Z,31.41
2023-05-12T10:50:53.656Z,31.39
2023-05-12T10:51:53.689Z,31.51
2023-05-12T10:52:53.803Z,31.34
2023-05-12T10:53:54.846Z,31.41
2023-05-12T10:54:53.796Z,31.53
2023-05-12T10:55:53.949Z,31.44
2023-05-12T10:56:54.076Z,31.38
2023-05-12T10:57:54.169Z,31.27
2023-05-12T10:58:54.203Z,31.48
2023-05-12T10:59:54.416Z,31.51
2023-05-12T11:00:55.212Z,31.48
2023-05-12T11:01:54.383Z,31.65
2023-05-12T11:02:54.536Z,31.29
2023-05-12T11:03:54.549Z,31.45
2023-05-12T11:04:54.589Z,31.23
2023-05-12T11:05:54.100Z,31.23
2023-05-12T11:06:54.564Z,31.18
2023-05-12T11:07:54.677Z,31.01
2023-05-12T11:08:55.160Z,30.85
2023-05-12T11:09:58.425Z,30.70
2023-05-12T11:10:55.057Z,30.28
2023-05-12T11:11:54.293Z,30.26
2023-05-12T11:12:53.961Z,30.42
2023-05-12T11:13:53.969Z,30.46
2023-05-12T11:14:54.425Z,30.77
2023-05-12T11:15:54.005Z,30.55
2023-05-12T11:16:53.973Z,30.26
2023-05-12T11:17:53.978Z,30.36
2023-05-12T11:18:54.081Z,30.24
2023-05-12T11:19:54.416Z,30.29
2023-05-12T11:20:53.909Z,30.44
2023-05-12T11:21:53.957Z,30.30
2023-05-12T11:22:53.918Z,30.37
2023-05-12T11:23:53.920Z,30.39
2023-05-12T11:24:54.494Z,30.37
2023-05-12T11:25:54.040Z,30.35
2023-05-12T11:26:54.029Z,30.82
2023-05-12T11:27:54.058Z,31.57
2023-05-12T11:28:54.127Z,31.26
2023-05-12T11:29:54.133Z,31.13
2023-05-12T11:30:55.451Z,31.49
2023-05-12T11:31:54.246Z,30.84
2023-05-12T11:32:54.282Z,30.99
2023-05-12T11:34:08.241Z,30.97
2023-05-12T11:34:55.289Z,31.26
2023-05-12T11:35:54.267Z,31.19
2023-05-12T11:36:54.259Z,31.35
2023-05-12T11:37:54.290Z,31.64
2023-05-12T11:38:54.230Z,31.86
2023-05-12T11:39:54.222Z,31.80
2023-05-12T11:40:54.243Z,31.87
2023-05-12T11:42:02.139Z,31.97
2023-05-12T11:42:55.212Z,32.02
2023-05-12T11:43:54.210Z,31.99
2023-05-12T11:44:54.205Z,31.94
2023-05-12T11:45:54.194Z,32.07
2023-05-12T11:46:54.199Z,31.95
2023-05-12T11:47:54.256Z,31.89
2023-05-12T11:48:54.169Z,31.94
2023-05-12T11:49:54.167Z,32.10
2023-05-12T11:50:54.191Z,31.99
2023-05-12T11:51:54.145Z,31.99
2023-05-12T11:52:54.146Z,31.83
2023-05-12T11:53:54.119Z,31.84
2023-05-12T11:54:54.123Z,31.88
2023-05-12T11:55:54.177Z,31.79
2023-05-12T11:56:54.130Z,31.79
2023-05-12T11:57:54.124Z,31.83
2023-05-12T11:58:54.125Z,31.83
2023-05-12T11:59:54.195Z,31.81
2023-05-12T12:00:54.234Z,31.71
2023-05-12T12:01:54.226Z,31.57
2023-05-12T12:02:54.412Z,31.57
2023-05-12T12:03:54.407Z,31.47
2023-05-12T12:04:54.439Z,31.41
2023-05-12T12:05:54.349Z,31.27
2023-05-12T12:06:54.396Z,31.15
2023-05-12T12:07:54.396Z,31.20
2023-05-12T12:08:54.401Z,31.03
2023-05-12T12:09:54.442Z,30.83
2023-05-12T12:10:54.445Z,30.63
2023-05-12T12:11:54.476Z,30.72
2023-05-12T12:12:54.515Z,30.60
2023-05-12T12:13:54.547Z,30.53
2023-05-12T12:14:54.604Z,30.55
2023-05-12T12:15:54.660Z,30.49
2023-05-12T12:16:54.653Z,30.39
2023-05-12T12:17:54.756Z,30.39
2023-05-12T12:18:54.773Z,30.37
2023-05-12T12:19:54.755Z,30.21
2023-05-12T12:20:54.777Z,30.21
2023-05-12T12:21:54.814Z,30.06
2023-05-12T12:22:54.908Z,29.85
2023-05-12T12:23:54.875Z,29.97
2023-05-12T12:24:54.917Z,29.84
2023-05-12T12:25:54.948Z,29.92
2023-05-12T12:26:54.980Z,29.76
2023-05-12T12:27:55.003Z,29.75
2023-05-12T12:28:55.054Z,29.73
2023-05-12T12:29:55.083Z,29.71
2023-05-12T12:30:55.136Z,29.71
2023-05-12T12:31:55.098Z,29.63
2023-05-12T12:32:55.214Z,29.42
2023-05-12T12:33:55.202Z,29.36
2023-05-12T12:34:55.227Z,29.17
2023-05-12T12:35:55.266Z,29.05
2023-05-12T12:36:55.313Z,29.08
2023-05-12T12:37:55.339Z,29.32
2023-05-12T12:38:55.359Z,29.53
2023-05-12T12:39:55.416Z,29.35
2023-05-12T12:40:55.430Z,29.51
2023-05-12T12:41:55.473Z,29.17
2023-05-12T12:42:55.501Z,29.60
2023-05-12T12:43:55.518Z,29.16
2023-05-12T12:44:55.577Z,29.34
2023-05-12T12:45:55.626Z,29.63
2023-05-12T12:46:55.671Z,29.70
2023-05-12T12:47:55.655Z,29.61
2023-05-12T12:48:55.686Z,29.28
2023-05-12T12:49:55.707Z,29.49
2023-05-12T12:50:55.707Z,29.42
2023-05-12T12:51:55.792Z,29.43
2023-05-12T12:52:55.798Z,29.27
2023-05-12T12:53:55.844Z,29.24
2023-05-12T12:54:55.823Z,29.08
2023-05-12T12:55:55.864Z,28.63